createdAt,value
2019-02-16T00:00:18.782Z,1025.83
2019-02-16T00:01:18.769Z,1025.84
2019-02-16T00:02:18.745Z,1025.81
2019-02-16T00:03:18.742Z,1025.80
2019-02-16T00:04:18.759Z,1025.79
2019-02-16T00:05:18.709Z,1025.83
2019-02-16T00:06:18.701Z,1025.76
2019-02-16T00:07:18.690Z,1025.76
2019-02-16T00:08:18.679Z,1025.77
2019-02-16T00:09:18.676Z,1025.72
2019-02-16T00:10:18.690Z,1025.75
2019-02-16T00:11:18.646Z,1025.71
2019-02-16T00:12:18.632Z,1025.70
2019-02-16T00:13:18.629Z,1025.67
2019-02-16T00:14:18.618Z,1025.72
2019-02-16T00:15:18.626Z,1025.70
2019-02-16T00:16:18.590Z,1025.71
2019-02-16T00:17:18.576Z,1025.66
2019-02-16T00:18:18.566Z,1025.67
2019-02-16T00:19:18.557Z,1025.69
2019-02-16T00:20:18.566Z,1025.69
2019-02-16T00:21:18.532Z,1025.65
2019-02-16T00:22:18.535Z,1025.67
2019-02-16T00:23:18.511Z,1025.66
2019-02-16T00:24:18.512Z,1025.60
2019-02-16T00:25:18.514Z,1025.58
2019-02-16T00:26:18.482Z,1025.62
2019-02-16T00:27:18.470Z,1025.58
2019-02-16T00:28:18.454Z,1025.64
2019-02-16T00:29:18.439Z,1025.66
2019-02-16T00:30:18.454Z,1025.62
2019-02-16T00:31:18.444Z,1025.65
2019-02-16T00:32:18.422Z,1025.61
2019-02-16T00:33:18.398Z,1025.65
2019-02-16T00:34:18.388Z,1025.62
2019-02-16T00:35:18.381Z,1025.63
2019-02-16T00:36:18.390Z,1025.57
2019-02-16T00:37:18.355Z,1025.57
2019-02-16T00:38:18.344Z,1025.61
2019-02-16T00:39:18.348Z,1025.56
2019-02-16T00:40:18.336Z,1025.60
2019-02-16T00:41:18.320Z,1025.61
2019-02-16T00:42:18.300Z,1025.62
2019-02-16T00:43:18.293Z,1025.62
2019-02-16T00:44:18.288Z,1025.57
2019-02-16T00:45:18.286Z,1025.58
2019-02-16T00:46:18.254Z,1025.56
2019-02-16T00:47:18.266Z,1025.49
2019-02-16T00:48:18.240Z,1025.58
2019-02-16T00:49:18.222Z,1025.53
2019-02-16T00:50:18.220Z,1025.52
2019-02-16T00:51:18.217Z,1025.58
2019-02-16T00:52:18.207Z,1025.54
2019-02-16T00:53:18.177Z,1025.54
2019-02-16T00:54:18.165Z,1025.60
2019-02-16T00:55:18.157Z,1025.58
2019-02-16T00:56:18.167Z,1025.58
2019-02-16T00:57:18.133Z,1025.53
2019-02-16T00:58:18.127Z,1025.51
2019-02-16T00:59:18.108Z,1025.48
2019-02-16T01:00:18.103Z,1025.52
2019-02-16T01:01:18.110Z,1025.48
2019-02-16T01:02:18.074Z,1025.44
2019-02-16T01:03:18.064Z,1025.47
2019-02-16T01:04:18.052Z,1025.42
2019-02-16T01:05:18.042Z,1025.41
2019-02-16T01:06:18.044Z,1025.42
2019-02-16T01:07:18.022Z,1025.37
2019-02-16T01:08:18.006Z,1025.38
2019-02-16T01:09:18.000Z,1025.34
2019-02-16T01:10:17.988Z,1025.34
2019-02-16T01:11:17.999Z,1025.35
2019-02-16T01:12:17.974Z,1025.28
2019-02-16T01:13:17.956Z,1025.25
2019-02-16T01:14:17.946Z,1025.27
2019-02-16T01:15:17.934Z,1025.27
2019-02-16T01:16:17.946Z,1025.23
2019-02-16T01:17:17.912Z,1025.22
2019-02-16T01:18:17.903Z,1025.19
2019-02-16T01:19:17.892Z,1025.18
2019-02-16T01:20:17.871Z,1025.19
2019-02-16T01:21:22.736Z,1025.17
2019-02-16T01:22:18.855Z,1025.18
2019-02-16T01:23:17.849Z,1025.16
2019-02-16T01:24:17.831Z,1025.12
2019-02-16T01:25:17.816Z,1025.14
2019-02-16T01:26:17.820Z,1025.07
2019-02-16T01:27:17.797Z,1025.12
2019-02-16T01:28:17.786Z,1025.01
2019-02-16T01:29:17.777Z,1025.03
2019-02-16T01:30:17.768Z,1025.08
2019-02-16T01:31:17.782Z,1025.01
2019-02-16T01:32:17.747Z,1025.02
2019-02-16T01:33:17.733Z,1025.04
2019-02-16T01:34:17.720Z,1025.05
2019-02-16T01:35:17.712Z,1025.03
2019-02-16T01:36:17.733Z,1025.03
2019-02-16T01:37:17.688Z,1025.04
2019-02-16T01:38:17.672Z,1024.98
2019-02-16T01:39:17.667Z,1024.97
2019-02-16T01:40:17.657Z,1024.94
2019-02-16T01:41:17.652Z,1024.97
2019-02-16T01:42:17.656Z,1024.91
2019-02-16T01:43:17.622Z,1024.93
2019-02-16T01:44:17.609Z,1024.87
2019-02-16T01:45:17.598Z,1024.86
2019-02-16T01:46:17.587Z,1024.90
2019-02-16T01:47:17.599Z,1024.85
2019-02-16T01:48:17.563Z,1024.84
2019-02-16T01:49:17.556Z,1024.87
2019-02-16T01:50:17.543Z,1024.80
2019-02-16T01:51:17.526Z,1024.81
2019-02-16T01:52:17.534Z,1024.80
2019-02-16T01:53:17.509Z,1024.77
2019-02-16T01:54:17.495Z,1024.76
2019-02-16T01:55:17.491Z,1024.80
2019-02-16T01:56:17.477Z,1024.75
2019-02-16T01:57:17.485Z,1024.79
2019-02-16T01:58:17.453Z,1024.79
2019-02-16T01:59:17.439Z,1024.81
2019-02-16T02:00:17.426Z,1024.85
2019-02-16T02:01:17.428Z,1024.78
2019-02-16T02:02:17.421Z,1024.82
2019-02-16T02:03:17.391Z,1024.76
2019-02-16T02:04:17.393Z,1024.77
2019-02-16T02:05:17.368Z,1024.76
2019-02-16T02:06:17.361Z,1024.75
2019-02-16T02:07:17.429Z,1024.70
2019-02-16T02:08:17.351Z,1024.74
2019-02-16T02:09:17.326Z,1024.74
2019-02-16T02:10:17.324Z,1024.71
2019-02-16T02:11:17.301Z,1024.68
2019-02-16T02:12:17.309Z,1024.67
2019-02-16T02:13:17.287Z,1024.61
2019-02-16T02:14:17.273Z,1024.64
2019-02-16T02:15:17.267Z,1024.65
2019-02-16T02:16:17.247Z,1024.64
2019-02-16T02:17:17.254Z,1024.61
2019-02-16T02:18:17.232Z,1024.59
2019-02-16T02:19:17.217Z,1024.56
2019-02-16T02:20:17.208Z,1024.56
2019-02-16T02:21:17.197Z,1024.49
2019-02-16T02:22:17.242Z,1024.53
2019-02-16T02:23:17.173Z,1024.50
2019-02-16T02:24:17.162Z,1024.48
2019-02-16T02:25:17.163Z,1024.50
2019-02-16T02:26:17.138Z,1024.53
2019-02-16T02:27:17.151Z,1024.48
2019-02-16T02:28:17.114Z,1024.42
2019-02-16T02:29:17.105Z,1024.48
2019-02-16T02:30:17.094Z,1024.48
2019-02-16T02:31:17.112Z,1024.47
2019-02-16T02:32:17.084Z,1024.48
2019-02-16T02:33:17.073Z,1024.43
2019-02-16T02:34:17.048Z,1024.36
2019-02-16T02:35:17.043Z,1024.41
2019-02-16T02:36:17.036Z,1024.38
2019-02-16T02:37:17.041Z,1024.36
2019-02-16T02:38:17.007Z,1024.37
2019-02-16T02:39:16.999Z,1024.42
2019-02-16T02:40:16.984Z,1024.34
2019-02-16T02:41:16.972Z,1024.39
2019-02-16T02:42:16.975Z,1024.40
2019-02-16T02:43:16.956Z,1024.37
2019-02-16T02:44:16.942Z,1024.29
2019-02-16T02:45:16.928Z,1024.34
2019-02-16T02:46:16.915Z,1024.32
2019-02-16T02:47:16.919Z,1024.30
2019-02-16T02:48:16.901Z,1024.38
2019-02-16T02:49:16.880Z,1024.35
2019-02-16T02:50:16.882Z,1024.33
2019-02-16T02:51:16.862Z,1024.36
2019-02-16T02:52:16.899Z,1024.33
2019-02-16T02:53:16.835Z,1024.31
2019-02-16T02:54:16.865Z,1024.35
2019-02-16T02:55:16.820Z,1024.29
2019-02-16T02:56:16.818Z,1024.29
2019-02-16T02:57:16.793Z,1024.27
2019-02-16T02:58:16.795Z,1024.28
2019-02-16T02:59:16.769Z,1024.28
2019-02-16T03:00:16.759Z,1024.23
2019-02-16T03:01:16.749Z,1024.24
2019-02-16T03:02:16.743Z,1024.24
2019-02-16T03:03:16.745Z,1024.22
2019-02-16T03:04:16.715Z,1024.23
2019-02-16T03:05:16.705Z,1024.22
2019-02-16T03:06:16.748Z,1024.18
2019-02-16T03:07:16.695Z,1024.15
2019-02-16T03:08:16.700Z,1024.21
2019-02-16T03:09:16.659Z,1024.20
2019-02-16T03:10:16.651Z,1024.20
2019-02-16T03:11:16.640Z,1024.23
2019-02-16T03:12:16.625Z,1024.22
2019-02-16T03:13:16.627Z,1024.22
2019-02-16T03:14:16.602Z,1024.28
2019-02-16T03:15:16.589Z,1024.24
2019-02-16T03:16:16.580Z,1024.33
2019-02-16T03:17:16.570Z,1024.28
2019-02-16T03:18:16.579Z,1024.31
2019-02-16T03:19:16.557Z,1024.30
2019-02-16T03:20:16.534Z,1024.31
2019-02-16T03:21:16.528Z,1024.29
2019-02-16T03:22:16.508Z,1024.30
2019-02-16T03:23:16.527Z,1024.30
2019-02-16T03:24:16.495Z,1024.25
2019-02-16T03:25:16.476Z,1024.31
2019-02-16T03:26:16.469Z,1024.30
2019-02-16T03:27:16.455Z,1024.28
2019-02-16T03:28:16.459Z,1024.22
2019-02-16T03:29:16.436Z,1024.22
2019-02-16T03:30:16.431Z,1024.19
2019-02-16T03:31:16.419Z,1024.20
2019-02-16T03:32:16.410Z,1024.19
2019-02-16T03:33:16.420Z,1024.21
2019-02-16T03:34:16.389Z,1024.16
2019-02-16T03:35:16.367Z,1024.14
2019-02-16T03:36:16.361Z,1024.12
2019-02-16T03:37:16.349Z,1024.16
2019-02-16T03:38:16.361Z,1024.17
2019-02-16T03:39:16.322Z,1024.12
2019-02-16T03:40:16.313Z,1024.13
2019-02-16T03:41:16.303Z,1024.12
2019-02-16T03:42:16.289Z,1024.17
2019-02-16T03:43:16.314Z,1024.17
2019-02-16T03:44:16.264Z,1024.13
2019-02-16T03:45:16.258Z,1024.12
2019-02-16T03:46:16.241Z,1024.08
2019-02-16T03:47:16.233Z,1024.11
2019-02-16T03:48:16.233Z,1024.09
2019-02-16T03:49:16.225Z,1024.08
2019-02-16T03:50:16.204Z,1024.06
2019-02-16T03:51:16.193Z,1024.03
2019-02-16T03:52:16.179Z,1023.98
2019-02-16T03:53:16.173Z,1023.99
2019-02-16T03:54:16.170Z,1024.01
2019-02-16T03:55:16.146Z,1024.00
2019-02-16T03:56:16.131Z,1024.01
2019-02-16T03:57:16.126Z,1024.02
2019-02-16T03:58:16.116Z,1023.98
2019-02-16T03:59:16.118Z,1024.03
2019-02-16T04:00:16.090Z,1023.96
2019-02-16T04:01:16.081Z,1023.97
2019-02-16T04:02:16.068Z,1023.93
2019-02-16T04:03:16.052Z,1023.94
2019-02-16T04:04:16.058Z,1023.94
2019-02-16T04:05:16.042Z,1023.95
2019-02-16T04:06:16.031Z,1023.93
2019-02-16T04:07:16.008Z,1023.92
2019-02-16T04:08:16.003Z,1023.95
2019-02-16T04:09:16.026Z,1023.92
2019-02-16T04:10:15.986Z,1023.94
2019-02-16T04:11:15.977Z,1023.89
2019-02-16T04:12:15.957Z,1023.90
2019-02-16T04:13:15.947Z,1023.88
2019-02-16T04:14:15.959Z,1023.92
2019-02-16T04:15:15.937Z,1023.88
2019-02-16T04:16:15.915Z,1023.87
2019-02-16T04:17:15.900Z,1023.85
2019-02-16T04:18:15.892Z,1023.83
2019-02-16T04:19:15.882Z,1023.83
2019-02-16T04:20:15.881Z,1023.79
2019-02-16T04:21:15.855Z,1023.79
2019-02-16T04:22:24.138Z,1023.81
2019-02-16T04:23:16.835Z,1023.74
2019-02-16T04:24:15.822Z,1023.74
2019-02-16T04:25:15.830Z,1023.72
2019-02-16T04:26:15.809Z,1023.69
2019-02-16T04:27:15.790Z,1023.66
2019-02-16T04:28:15.809Z,1023.65
2019-02-16T04:29:15.770Z,1023.68
2019-02-16T04:30:15.777Z,1023.65
2019-02-16T04:31:15.748Z,1023.58
2019-02-16T04:32:15.731Z,1023.60
2019-02-16T04:33:15.780Z,1023.62
2019-02-16T04:34:15.725Z,1023.64
2019-02-16T04:35:15.716Z,1023.57
2019-02-16T04:36:15.689Z,1023.59
2019-02-16T04:37:15.674Z,1023.56
2019-02-16T04:38:15.670Z,1023.56
2019-02-16T04:39:15.659Z,1023.57
2019-02-16T04:40:15.670Z,1023.58
2019-02-16T04:41:15.632Z,1023.54
2019-02-16T04:42:15.619Z,1023.53
2019-02-16T04:43:15.621Z,1023.54
2019-02-16T04:44:15.602Z,1023.52
2019-02-16T04:45:15.613Z,1023.51
2019-02-16T04:46:15.579Z,1023.47
2019-02-16T04:47:15.565Z,1023.47
2019-02-16T04:48:15.553Z,1023.46
2019-02-16T04:49:15.555Z,1023.41
2019-02-16T04:50:15.554Z,1023.45
2019-02-16T04:51:15.527Z,1023.42
2019-02-16T04:52:15.520Z,1023.41
2019-02-16T04:53:15.557Z,1023.38
2019-02-16T04:54:15.490Z,1023.38
2019-02-16T04:55:15.512Z,1023.38
2019-02-16T04:56:15.473Z,1023.35
2019-02-16T04:57:15.459Z,1023.36
2019-02-16T04:58:15.445Z,1023.38
2019-02-16T04:59:15.435Z,1023.35
2019-02-16T05:00:15.422Z,1023.32
2019-02-16T05:01:15.437Z,1023.31
2019-02-16T05:02:15.407Z,1023.29
2019-02-16T05:03:15.407Z,1023.29
2019-02-16T05:04:15.381Z,1023.24
2019-02-16T05:05:15.370Z,1023.28
2019-02-16T05:06:15.456Z,1023.25
2019-02-16T05:07:15.345Z,1023.21
2019-02-16T05:08:15.335Z,1023.30
2019-02-16T05:09:15.326Z,1023.28
2019-02-16T05:10:15.325Z,1023.26
2019-02-16T05:11:15.321Z,1023.25
2019-02-16T05:12:15.294Z,1023.24
2019-02-16T05:13:15.280Z,1023.23
2019-02-16T05:14:15.278Z,1023.23
2019-02-16T05:15:15.267Z,1023.23
2019-02-16T05:16:15.264Z,1023.22
2019-02-16T05:17:15.233Z,1023.20
2019-02-16T05:18:15.231Z,1023.19
2019-02-16T05:19:15.213Z,1023.22
2019-02-16T05:20:15.201Z,1023.20
2019-02-16T05:21:15.212Z,1023.19
2019-02-16T05:22:15.179Z,1023.16
2019-02-16T05:23:15.167Z,1023.15
2019-02-16T05:24:15.153Z,1023.14
2019-02-16T05:25:15.157Z,1023.18
2019-02-16T05:26:15.164Z,1023.12
2019-02-16T05:27:15.128Z,1023.19
2019-02-16T05:28:15.115Z,1023.13
2019-02-16T05:29:15.104Z,1023.13
2019-02-16T05:30:15.089Z,1023.14
2019-02-16T05:31:15.097Z,1023.10
2019-02-16T05:32:15.082Z,1023.07
2019-02-16T05:33:15.055Z,1023.12
2019-02-16T05:34:15.051Z,1023.12
2019-02-16T05:35:15.040Z,1023.11
2019-02-16T05:36:15.053Z,1023.12
2019-02-16T05:37:15.023Z,1023.10
2019-02-16T05:38:15.021Z,1023.09
2019-02-16T05:39:14.990Z,1023.09
2019-02-16T05:40:14.980Z,1023.08
2019-02-16T05:41:14.987Z,1023.05
2019-02-16T05:42:14.985Z,1023.07
2019-02-16T05:43:14.952Z,1023.06
2019-02-16T05:44:14.938Z,1023.04
2019-02-16T05:45:14.928Z,1023.06
2019-02-16T05:46:14.913Z,1023.08
2019-02-16T05:47:14.931Z,1023.09
2019-02-16T05:48:14.895Z,1023.02
2019-02-16T05:49:14.893Z,1023.05
2019-02-16T05:50:14.867Z,1023.03
2019-02-16T05:51:14.859Z,1023.05
2019-02-16T05:52:14.879Z,1023.06
2019-02-16T05:53:14.834Z,1023.05
2019-02-16T05:54:14.833Z,1023.06
2019-02-16T05:55:14.815Z,1023.11
2019-02-16T05:56:14.805Z,1023.08
2019-02-16T05:57:14.960Z,1023.13
2019-02-16T05:58:14.785Z,1023.09
2019-02-16T05:59:14.769Z,1023.11
2019-02-16T06:00:14.770Z,1023.09
2019-02-16T06:01:14.751Z,1023.09
2019-02-16T06:02:14.773Z,1023.10
2019-02-16T06:03:14.728Z,1023.10
2019-02-16T06:04:14.727Z,1023.11
2019-02-16T06:05:14.703Z,1023.09
2019-02-16T06:06:14.699Z,1023.08
2019-02-16T06:07:14.715Z,1023.05
2019-02-16T06:08:14.679Z,1023.09
2019-02-16T06:09:14.658Z,1023.02
2019-02-16T06:10:14.657Z,1023.06
2019-02-16T06:11:14.641Z,1023.10
2019-02-16T06:12:14.648Z,1023.14
2019-02-16T06:13:14.613Z,1023.14
2019-02-16T06:14:14.601Z,1023.10
2019-02-16T06:15:14.595Z,1023.12
2019-02-16T06:16:14.581Z,1023.09
2019-02-16T06:17:14.617Z,1023.07
2019-02-16T06:18:14.580Z,1023.17
2019-02-16T06:19:14.550Z,1023.10
2019-02-16T06:20:14.560Z,1023.11
2019-02-16T06:21:14.531Z,1023.08
2019-02-16T06:22:14.515Z,1023.07
2019-02-16T06:23:14.522Z,1023.04
2019-02-16T06:24:14.490Z,1023.04
2019-02-16T06:25:14.486Z,1023.00
2019-02-16T06:26:14.472Z,1022.97
2019-02-16T06:27:14.468Z,1022.99
2019-02-16T06:28:14.466Z,1023.03
2019-02-16T06:29:14.446Z,1022.99
2019-02-16T06:30:14.432Z,1022.95
2019-02-16T06:31:14.421Z,1022.98
2019-02-16T06:32:14.401Z,1022.95
2019-02-16T06:33:14.412Z,1022.97
2019-02-16T06:34:14.384Z,1022.92
2019-02-16T06:35:14.382Z,1022.93
2019-02-16T06:36:14.359Z,1022.95
2019-02-16T06:37:14.345Z,1022.98
2019-02-16T06:38:14.360Z,1022.98
2019-02-16T06:39:14.335Z,1023.02
2019-02-16T06:40:14.336Z,1023.04
2019-02-16T06:41:14.316Z,1023.00
2019-02-16T06:42:14.295Z,1023.02
2019-02-16T06:43:14.302Z,1022.98
2019-02-16T06:44:14.270Z,1023.00
2019-02-16T06:45:14.264Z,1022.98
2019-02-16T06:46:14.255Z,1023.01
2019-02-16T06:47:14.248Z,1023.03
2019-02-16T06:48:14.239Z,1023.03
2019-02-16T06:49:14.219Z,1023.03
2019-02-16T06:50:14.204Z,1023.05
2019-02-16T06:51:14.990Z,1023.10
2019-02-16T06:52:14.189Z,1023.12
2019-02-16T06:53:14.204Z,1023.10
2019-02-16T06:54:14.159Z,1023.09
2019-02-16T06:55:14.145Z,1023.10
2019-02-16T06:56:14.148Z,1023.14
2019-02-16T06:57:14.131Z,1023.12
2019-02-16T06:58:14.131Z,1023.17
2019-02-16T06:59:14.128Z,1023.24
2019-02-16T07:00:14.098Z,1023.19
2019-02-16T07:01:14.082Z,1023.24
2019-02-16T07:02:14.076Z,1023.26
2019-02-16T07:03:14.063Z,1023.21
2019-02-16T07:04:14.064Z,1023.24
2019-02-16T07:05:14.038Z,1023.26
2019-02-16T07:06:14.029Z,1023.22
2019-02-16T07:07:14.018Z,1023.21
2019-02-16T07:08:14.011Z,1023.21
2019-02-16T07:09:14.016Z,1023.18
2019-02-16T07:10:13.994Z,1023.22
2019-02-16T07:11:13.976Z,1023.21
2019-02-16T07:12:13.962Z,1023.19
2019-02-16T07:13:13.948Z,1023.10
2019-02-16T07:14:14.030Z,1023.17
2019-02-16T07:15:13.942Z,1023.13
2019-02-16T07:16:13.925Z,1023.12
2019-02-16T07:17:13.905Z,1023.15
2019-02-16T07:18:13.896Z,1023.16
2019-02-16T07:19:13.902Z,1023.10
2019-02-16T07:20:13.876Z,1023.16
2019-02-16T07:21:13.869Z,1023.11
2019-02-16T07:22:13.848Z,1023.18
2019-02-16T07:23:22.280Z,1023.13
2019-02-16T07:24:14.848Z,1023.13
2019-02-16T07:25:13.821Z,1023.14
2019-02-16T07:26:13.818Z,1023.13
2019-02-16T07:27:13.794Z,1023.13
2019-02-16T07:28:13.802Z,1023.10
2019-02-16T07:29:13.789Z,1023.12
2019-02-16T07:30:13.763Z,1023.09
2019-02-16T07:31:15.802Z,1023.12
2019-02-16T07:32:13.744Z,1023.14
2019-02-16T07:33:13.732Z,1023.12
2019-02-16T07:34:13.759Z,1023.10
2019-02-16T07:35:13.745Z,1023.07
2019-02-16T07:36:13.692Z,1023.04
2019-02-16T07:37:13.684Z,1023.07
2019-02-16T07:38:13.742Z,1023.04
2019-02-16T07:39:14.730Z,1023.09
2019-02-16T07:40:13.674Z,1023.08
2019-02-16T07:41:13.643Z,1022.99
2019-02-16T07:42:13.630Z,1023.03
2019-02-16T07:43:13.620Z,1023.02
2019-02-16T07:44:13.610Z,1023.04
2019-02-16T07:45:13.628Z,1023.04
2019-02-16T07:46:13.586Z,1023.00
2019-02-16T07:47:13.572Z,1022.98
2019-02-16T07:48:13.564Z,1022.99
2019-02-16T07:49:13.554Z,1023.02
2019-02-16T07:50:13.557Z,1023.00
2019-02-16T07:51:13.566Z,1022.99
2019-02-16T07:52:13.522Z,1022.95
2019-02-16T07:53:13.506Z,1022.94
2019-02-16T07:54:13.505Z,1022.95
2019-02-16T07:55:13.506Z,1022.95
2019-02-16T07:56:13.479Z,1022.97
2019-02-16T07:57:13.466Z,1022.95
2019-02-16T07:58:13.470Z,1023.00
2019-02-16T07:59:13.445Z,1022.99
2019-02-16T08:00:13.449Z,1022.94
2019-02-16T08:01:13.419Z,1022.97
2019-02-16T08:02:13.418Z,1022.97
2019-02-16T08:03:13.407Z,1022.99
2019-02-16T08:04:13.395Z,1023.00
2019-02-16T08:05:13.398Z,1022.94
2019-02-16T08:06:13.369Z,1022.95
2019-02-16T08:07:13.356Z,1022.94
2019-02-16T08:08:13.338Z,1022.96
2019-02-16T08:09:14.192Z,1022.89
2019-02-16T08:10:13.332Z,1022.87
2019-02-16T08:11:13.474Z,1022.90
2019-02-16T08:12:13.296Z,1022.94
2019-02-16T08:13:13.284Z,1022.97
2019-02-16T08:14:13.273Z,1023.01
2019-02-16T08:15:13.299Z,1022.99
2019-02-16T08:16:13.251Z,1022.99
2019-02-16T08:17:14.197Z,1022.97
2019-02-16T08:18:13.232Z,1023.00
2019-02-16T08:19:13.220Z,1022.92
2019-02-16T08:20:13.241Z,1022.95
2019-02-16T08:21:13.197Z,1022.86
2019-02-16T08:22:13.185Z,1022.85
2019-02-16T08:23:13.181Z,1022.86
2019-02-16T08:24:13.159Z,1022.87
2019-02-16T08:25:13.156Z,1022.86
2019-02-16T08:26:13.178Z,1022.86
2019-02-16T08:27:13.128Z,1022.81
2019-02-16T08:28:13.119Z,1022.87
2019-02-16T08:29:13.202Z,1022.77
2019-02-16T08:30:13.099Z,1022.80
2019-02-16T08:31:13.095Z,1022.71
2019-02-16T08:32:13.073Z,1022.76
2019-02-16T08:33:13.062Z,1022.75
2019-02-16T08:34:13.092Z,1022.78
2019-02-16T08:35:13.040Z,1022.75
2019-02-16T08:36:13.046Z,1022.77
2019-02-16T08:37:13.042Z,1022.77
2019-02-16T08:38:13.005Z,1022.72
2019-02-16T08:39:12.994Z,1022.81
2019-02-16T08:40:12.988Z,1022.73
2019-02-16T08:41:13.011Z,1022.76
2019-02-16T08:42:12.964Z,1022.74
2019-02-16T08:43:12.949Z,1022.71
2019-02-16T08:44:12.937Z,1022.73
2019-02-16T08:45:12.931Z,1022.66
2019-02-16T08:46:12.948Z,1022.63
2019-02-16T08:47:12.905Z,1022.63
2019-02-16T08:48:12.933Z,1022.57
2019-02-16T08:49:12.885Z,1022.60
2019-02-16T08:50:12.872Z,1022.59
2019-02-16T08:51:12.890Z,1022.58
2019-02-16T08:52:12.853Z,1022.58
2019-02-16T08:53:12.844Z,1022.56
2019-02-16T08:54:12.843Z,1022.60
2019-02-16T08:55:12.811Z,1022.62
2019-02-16T08:56:12.845Z,1022.52
2019-02-16T08:57:12.792Z,1022.55
2019-02-16T08:58:12.778Z,1022.60
2019-02-16T08:59:12.774Z,1022.60
2019-02-16T09:00:12.779Z,1022.58
2019-02-16T09:01:12.782Z,1022.63
2019-02-16T09:02:12.843Z,1022.63
2019-02-16T09:03:12.729Z,1022.59
2019-02-16T09:04:12.715Z,1022.63
2019-02-16T09:05:12.705Z,1022.60
2019-02-16T09:06:12.691Z,1022.64
2019-02-16T09:07:12.735Z,1022.60
2019-02-16T09:08:12.670Z,1022.60
2019-02-16T09:09:12.660Z,1022.61
2019-02-16T09:10:12.654Z,1022.60
2019-02-16T09:11:12.647Z,1022.63
2019-02-16T09:12:12.652Z,1022.60
2019-02-16T09:13:12.617Z,1022.60
2019-02-16T09:14:12.603Z,1022.57
2019-02-16T09:15:12.603Z,1022.57
2019-02-16T09:16:12.586Z,1022.56
2019-02-16T09:17:13.413Z,1022.58
2019-02-16T09:18:12.556Z,1022.57
2019-02-16T09:19:12.551Z,1022.55
2019-02-16T09:20:12.532Z,1022.56
2019-02-16T09:21:14.698Z,1022.56
2019-02-16T09:22:13.612Z,1022.51
2019-02-16T09:23:12.528Z,1022.53
2019-02-16T09:24:12.495Z,1022.52
2019-02-16T09:25:12.479Z,1022.52
2019-02-16T09:26:12.471Z,1022.53
2019-02-16T09:27:12.471Z,1022.58
2019-02-16T09:28:12.462Z,1022.52
2019-02-16T09:29:12.435Z,1022.52
2019-02-16T09:30:12.425Z,1022.56
2019-02-16T09:31:12.407Z,1022.54
2019-02-16T09:32:13.227Z,1022.52
2019-02-16T09:33:12.390Z,1022.52
2019-02-16T09:34:12.387Z,1022.53
2019-02-16T09:35:12.368Z,1022.50
2019-02-16T09:36:12.358Z,1022.54
2019-02-16T09:37:12.371Z,1022.55
2019-02-16T09:38:12.331Z,1022.52
2019-02-16T09:39:12.328Z,1022.55
2019-02-16T09:40:12.306Z,1022.56
2019-02-16T09:41:12.309Z,1022.54
2019-02-16T09:42:12.307Z,1022.55
2019-02-16T09:43:12.279Z,1022.50
2019-02-16T09:44:12.267Z,1022.54
2019-02-16T09:45:12.256Z,1022.57
2019-02-16T09:46:12.244Z,1022.50
2019-02-16T09:47:12.248Z,1022.55
2019-02-16T09:48:12.225Z,1022.56
2019-02-16T09:49:12.215Z,1022.57
2019-02-16T09:50:12.245Z,1022.58
2019-02-16T09:51:12.191Z,1022.56
2019-02-16T09:52:12.208Z,1022.49
2019-02-16T09:53:12.164Z,1022.52
2019-02-16T09:54:12.153Z,1022.48
2019-02-16T09:55:12.394Z,1022.45
2019-02-16T09:56:12.135Z,1022.45
2019-02-16T09:57:12.334Z,1022.49
2019-02-16T09:58:12.137Z,1022.48
2019-02-16T09:59:12.215Z,1022.52
2019-02-16T10:00:13.939Z,1022.47
2019-02-16T10:01:12.141Z,1022.48
2019-02-16T10:02:12.062Z,1022.45
2019-02-16T10:03:12.085Z,1022.47
2019-02-16T10:04:12.035Z,1022.48
2019-02-16T10:05:12.023Z,1022.50
2019-02-16T10:06:12.023Z,1022.50
2019-02-16T10:07:12.002Z,1022.53
2019-02-16T10:08:12.010Z,1022.57
2019-02-16T10:09:11.981Z,1022.48
2019-02-16T10:10:11.970Z,1022.46
2019-02-16T10:11:11.959Z,1022.48
2019-02-16T10:12:11.951Z,1022.42
2019-02-16T10:13:12.010Z,1022.42
2019-02-16T10:14:12.098Z,1022.42
2019-02-16T10:15:11.924Z,1022.37
2019-02-16T10:16:11.904Z,1022.41
2019-02-16T10:17:11.887Z,1022.40
2019-02-16T10:18:11.916Z,1022.46
2019-02-16T10:19:11.875Z,1022.40
2019-02-16T10:20:11.903Z,1022.41
2019-02-16T10:21:11.841Z,1022.47
2019-02-16T10:22:11.836Z,1022.41
2019-02-16T10:23:11.846Z,1022.44
2019-02-16T10:24:17.635Z,1022.42
2019-02-16T10:25:12.835Z,1022.37
2019-02-16T10:26:11.872Z,1022.38
2019-02-16T10:27:11.786Z,1022.33
2019-02-16T10:28:11.795Z,1022.33
2019-02-16T10:29:11.761Z,1022.32
2019-02-16T10:30:11.744Z,1022.35
2019-02-16T10:31:11.735Z,1022.36
2019-02-16T10:32:11.721Z,1022.34
2019-02-16T10:33:11.725Z,1022.35
2019-02-16T10:34:11.703Z,1022.30
2019-02-16T10:35:11.687Z,1022.30
2019-02-16T10:36:11.694Z,1022.29
2019-02-16T10:37:11.666Z,1022.22
2019-02-16T10:38:11.685Z,1022.22
2019-02-16T10:39:11.647Z,1022.24
2019-02-16T10:40:11.641Z,1022.27
2019-02-16T10:41:11.636Z,1022.25
2019-02-16T10:42:11.612Z,1022.24
2019-02-16T10:43:11.624Z,1022.25
2019-02-16T10:44:11.598Z,1022.28
2019-02-16T10:45:11.574Z,1022.19
2019-02-16T10:46:11.584Z,1022.22
2019-02-16T10:47:11.545Z,1022.23
2019-02-16T10:48:11.549Z,1022.23
2019-02-16T10:49:11.555Z,1022.28
2019-02-16T10:50:11.530Z,1022.28
2019-02-16T10:51:11.515Z,1022.29
2019-02-16T10:52:11.504Z,1022.21
2019-02-16T10:53:11.490Z,1022.27
2019-02-16T10:54:11.493Z,1022.23
2019-02-16T10:55:11.465Z,1022.19
2019-02-16T10:56:11.471Z,1022.19
2019-02-16T10:57:11.445Z,1022.21
2019-02-16T10:58:11.431Z,1022.17
2019-02-16T10:59:11.416Z,1022.18
2019-02-16T11:00:11.406Z,1022.14
2019-02-16T11:01:11.409Z,1022.14
2019-02-16T11:02:11.389Z,1022.17
2019-02-16T11:03:11.378Z,1022.10
2019-02-16T11:04:11.379Z,1022.10
2019-02-16T11:05:11.404Z,1022.03
2019-02-16T11:06:11.340Z,1022.04
2019-02-16T11:07:11.331Z,1022.01
2019-02-16T11:08:11.315Z,1022.01
2019-02-16T11:09:11.327Z,1022.05
2019-02-16T11:10:11.294Z,1022.02
2019-02-16T11:11:11.284Z,1022.01
2019-02-16T11:12:11.270Z,1021.99
2019-02-16T11:13:11.260Z,1021.96
2019-02-16T11:14:11.351Z,1022.01
2019-02-16T11:15:11.237Z,1021.97
2019-02-16T11:16:11.232Z,1022.00
2019-02-16T11:17:11.224Z,1022.01
2019-02-16T11:18:11.203Z,1021.98
2019-02-16T11:19:11.210Z,1022.02
2019-02-16T11:20:11.186Z,1021.98
2019-02-16T11:21:11.174Z,1021.89
2019-02-16T11:22:11.162Z,1021.97
2019-02-16T11:23:11.165Z,1021.96
2019-02-16T11:24:11.794Z,1021.97
2019-02-16T11:25:11.126Z,1021.96
2019-02-16T11:26:11.196Z,1021.95
2019-02-16T11:27:11.119Z,1021.99
2019-02-16T11:28:11.196Z,1022.02
2019-02-16T11:29:11.325Z,1022.04
2019-02-16T11:30:11.079Z,1022.08
2019-02-16T11:31:11.060Z,1022.09
2019-02-16T11:32:11.064Z,1022.05
2019-02-16T11:33:11.037Z,1022.08
2019-02-16T11:34:11.067Z,1022.06
2019-02-16T11:35:11.044Z,1022.12
2019-02-16T11:36:11.008Z,1022.11
2019-02-16T11:37:10.999Z,1022.05
2019-02-16T11:38:10.990Z,1022.09
2019-02-16T11:39:10.972Z,1022.08
2019-02-16T11:40:10.980Z,1022.08
2019-02-16T11:41:18.690Z,1022.05
2019-02-16T11:42:11.941Z,1022.09
2019-02-16T11:43:10.929Z,1022.09
2019-02-16T11:44:10.938Z,1022.09
2019-02-16T11:45:10.959Z,1022.06
2019-02-16T11:46:10.908Z,1022.08
2019-02-16T11:47:10.893Z,1022.07
2019-02-16T11:48:10.883Z,1022.05
2019-02-16T11:49:10.870Z,1022.05
2019-02-16T11:50:10.882Z,1022.04
2019-02-16T11:51:10.847Z,1022.05
2019-02-16T11:52:10.852Z,1022.01
2019-02-16T11:53:10.869Z,1021.99
2019-02-16T11:54:10.823Z,1022.00
2019-02-16T11:55:10.830Z,1021.97
2019-02-16T11:56:10.801Z,1021.92
2019-02-16T11:57:10.784Z,1021.96
2019-02-16T11:58:10.782Z,1021.96
2019-02-16T11:59:10.761Z,1021.96
2019-02-16T12:00:10.771Z,1021.95
2019-02-16T12:01:10.738Z,1021.91
2019-02-16T12:02:10.734Z,1021.93
2019-02-16T12:03:10.744Z,1021.85
2019-02-16T12:04:10.722Z,1021.81
2019-02-16T12:05:10.751Z,1021.81